Latest Coastal Weather Observations for Lihou Reef Lighthouse

IDQ60701

Issued at 10:01 pm EST Tuesday 26 May 2015 (issued every 10 minutes, with the page automatically refreshed every 10 minutes)

About coastal observations | Map of coastal stations | Coastal observations for QLD | Marine services | Other Formats
Station Details ID: 200880 Name: LIHOU REEF LIGHTHOUSE Lat: -17.13 Lon: 152.15 Height: 0.0 m
Data from the previous 72 hours. | See also: Recent months for locations in Queensland
Date/Time
EST
Temp

°C
Wind Pressure Rain
since 9am
mm
Weather Cloud Vis
km
Sea
Height
m
Swell
Dir
 
Speed
knots
Gust
knots
hPa Trend Height
m
Period
s
Dir
26/10:00pm 25.4 ESE 20 24 1018.2 - - - - - - - - -
26/09:30pm 25.3 SE 20 23 1018.2 - - - - - - - - -
26/09:00pm 25.3 ESE 20 24 1018.0 - - - - - - - - -
26/08:30pm 25.5 SE 20 23 1017.8 - - - - - - - - -
26/08:00pm 25.5 SE 21 25 1017.6 - - - - - - - - -
26/07:30pm 25.2 SE 22 27 1017.6 - - - - - - - - -
26/07:00pm 25.5 SE 22 26 1017.3 - - - - - - - - -
26/06:30pm 25.7 SE 21 27 1016.9 - - - - - - - - -
26/06:00pm 25.6 SE 20 24 1016.6 - - - - - - - - -
26/05:30pm 25.2 SE 21 25 1016.5 - - - - - - - - -
26/05:00pm 25.4 ESE 22 28 1016.2 - - - - - - - - -
26/04:30pm 25.6 ESE 20 23 1016.3 - - - - - - - - -
26/04:00pm 25.0 ESE 21 26 1016.0 - - - - - - - - -
26/03:30pm 25.4 SE 18 22 1016.1 - - - - - - - - -
26/03:00pm 24.9 SE 20 23 1016.2 - - - - - - - - -
26/02:30pm 25.0 ESE 21 26 1016.3 - - - - - - - - -
26/02:00pm 25.6 SE 18 23 1016.6 - - - - - - - - -
26/01:30pm 25.5 SE 19 22 1016.9 - - - - - - - - -
26/01:00pm 25.5 SE 18 23 1017.3 - - - - - - - - -
26/12:30pm 25.7 SE 19 21 1017.9 - - - - - - - - -
26/12:00pm 25.7 SE 19 22 1018.3 - - - - - - - - -
26/11:30am 25.6 SE 19 23 1018.7 - - - - - - - - -
26/11:00am 25.7 SE 19 23 1019.2 - - - - - - - - -
26/10:30am 25.7 SE 19 22 1019.5 - - - - - - - - -
26/10:00am 25.4 SE 20 24 1019.7 - - - - - - - - -
26/09:30am 25.4 SE 21 25 1019.8 - - - - - - - - -
26/09:00am 25.6 SE 20 24 1019.9 - - - - - - - - -
26/08:30am 25.6 SE 20 23 1019.7 - - - - - - - - -
26/08:00am 25.4 SE 22 26 1019.2 - - - - - - - - -
26/07:30am 25.4 SE 23 27 1019.0 - - - - - - - - -
26/07:00am 25.2 SE 22 26 1019.0 - - - - - - - - -
26/06:30am 25.0 SE 23 26 1018.9 - - - - - - - - -
26/06:00am 25.4 SE 22 28 1018.4 - - - - - - - - -
26/05:30am 25.0 SE 20 23 1018.4 - - - - - - - - -
26/05:00am 25.1 SE 21 25 1018.5 - - - - - - - - -
26/04:30am 25.4 SE 21 25 1018.4 - - - - - - - - -
26/04:00am 25.1 ESE 22 27 1018.3 - - - - - - - - -
26/03:30am 25.1 ESE 22 26 1018.3 - - - - - - - - -
26/03:00am 24.8 SE 21 26 1018.3 - - - - - - - - -
26/02:41am 24.8 SE 23 28 1018.0 - - - - - - - - -
26/02:30am 25.5 ESE 20 24 1018.3 - - - - - - - - -
26/02:00am 25.6 ESE 19 23 1018.5 - - - - - - - - -
26/01:30am 25.7 ESE 21 26 1018.8 - - - - - - - - -
26/01:00am 25.5 ESE 21 24 1018.8 - - - - - - - - -
26/12:30am 25.7 ESE 20 25 1018.8 - - - - - - - - -
26/12:00am 25.7 ESE 22 25 1018.9 - - - - - - - - -
 
Date/Time
EST
Temp

°C
Wind Pressure Rain
since 9am
mm
Weather Cloud Vis
km
Sea
Height
m
Swell
Dir
 
Speed
knots
Gust
knots
hPa Trend Height
m
Period
s
Dir
25/11:30pm 25.8 ESE 21 25 1019.2 - - - - - - - - -
25/11:00pm 25.8 ESE 19 24 1019.5 - - - - - - - - -
25/10:30pm 25.2 ESE 22 26 1019.7 - - - - - - - - -
25/10:00pm 25.4 ESE 23 27 1019.7 - - - - - - - - -
25/09:30pm 25.6 ESE 24 27 1019.7 - - - - - - - - -
25/09:00pm 25.5 ESE 23 27 1019.9 - - - - - - - - -
25/08:30pm 25.1 SE 24 29 1020.1 - - - - - - - - -
25/08:00pm 25.4 SE 21 26 1019.7 - - - - - - - - -
25/07:30pm 25.5 ESE 24 29 1019.5 - - - - - - - - -
25/07:00pm 25.1 SE 21 25 1019.0 - - - - - - - - -
25/06:30pm 25.5 SE 22 26 1018.6 - - - - - - - - -
25/06:00pm 25.4 SE 23 25 1018.2 - - - - - - - - -
25/05:30pm 25.3 ESE 23 26 1017.9 - - - - - - - - -
25/05:00pm 25.5 ESE 23 27 1017.8 - - - - - - - - -
25/04:30pm 25.5 ESE 22 26 1017.4 - - - - - - - - -
25/04:00pm 25.5 ESE 22 26 1017.3 - - - - - - - - -
25/03:30pm 25.7 ESE 23 26 1017.1 - - - - - - - - -
25/03:00pm 25.8 ESE 23 26 1017.2 - - - - - - - - -
25/02:30pm 25.7 SE 22 26 1017.4 - - - - - - - - -
25/02:00pm 25.0 ESE 21 26 1017.6 - - - - - - - - -
25/01:30pm 25.2 SE 19 23 1017.7 - - - - - - - - -
25/01:00pm 25.3 ESE 20 26 1018.1 - - - - - - - - -
25/12:30pm 25.5 ESE 19 24 1018.5 - - - - - - - - -
25/12:00pm 25.1 SE 21 26 1019.0 - - - - - - - - -
25/11:30am 23.8 ESE 19 26 1019.4 - - - - - - - - -
25/11:00am 25.6 SE 21 26 1019.4 - - - - - - - - -
25/10:30am 25.6 ESE 23 26 1019.6 - - - - - - - - -
25/10:00am 25.9 ESE 22 26 1019.9 - - - - - - - - -
25/09:30am 25.6 SE 22 27 1020.0 - - - - - - - - -
25/09:00am 25.7 ESE 24 28 1020.0 - - - - - - - - -
25/08:30am 25.6 SE 23 27 1019.9 - - - - - - - - -
25/08:00am 25.7 ESE 23 27 1019.7 - - - - - - - - -
25/07:30am 25.4 SE 25 31 1019.5 - - - - - - - - -
25/07:00am 25.7 SE 25 30 1019.3 - - - - - - - - -
25/06:30am 25.2 ESE 23 30 1019.3 - - - - - - - - -
25/06:00am 24.1 ESE 21 25 1019.1 - - - - - - - - -
25/05:30am 24.3 ESE 24 30 1018.6 - - - - - - - - -
25/05:11am 25.4 ESE 25 35 1018.2 - - - - - - - - -
25/05:00am 24.7 ESE 20 29 1018.2 - - - - - - - - -
25/04:30am 24.8 ESE 25 31 1017.9 - - - - - - - - -
25/04:00am 24.7 E 24 30 1018.0 - - - - - - - - -
25/03:30am 25.4 ESE 23 28 1017.9 - - - - - - - - -
25/03:00am 25.2 ESE 23 28 1018.1 - - - - - - - - -
25/02:30am 25.4 ESE 25 30 1018.2 - - - - - - - - -
25/02:00am 25.2 ESE 23 28 1018.5 - - - - - - - - -
25/01:30am 25.4 ESE 26 30 1018.5 - - - - - - - - -
25/01:00am 25.6 SE 23 29 1018.8 - - - - - - - - -
25/12:36am 25.7 ESE 23 33 1018.8 - - - - - - - - -
25/12:30am 25.6 ESE 22 26 1019.1 - - - - - - - - -
25/12:00am 25.1 ESE 25 31 1019.2 - - - - - - - - -
 
Date/Time
EST
Temp

°C
Wind Pressure Rain
since 9am
mm
Weather Cloud Vis
km
Sea
Height
m
Swell
Dir
 
Speed
knots
Gust
knots
hPa Trend Height
m
Period
s
Dir
24/11:30pm 25.4 ESE 24 29 1019.1 - - - - - - - - -
24/11:00pm 25.6 ESE 23 28 1019.2 - - - - - - - - -
24/10:30pm 25.7 ESE 23 28 1019.3 - - - - - - - - -
24/10:00pm 25.9 ESE 23 28 1019.4 - - - - - - - - -
24/09:30pm 25.8 ESE 24 28 1019.2 - - - - - - - - -
24/09:00pm 25.9 ESE 24 27 1019.1 - - - - - - - - -
24/08:30pm 26.0 ESE 24 28 1019.0 - - - - - - - - -
24/08:00pm 26.0 ESE 23 28 1018.6 - - - - - - - - -
24/07:30pm 26.1 ESE 23 27 1018.4 - - - - - - - - -
24/07:00pm 26.1 SE 22 27 1018.2 - - - - - - - - -
24/06:30pm 26.0 SE 23 27 1017.9 - - - - - - - - -
24/06:00pm 26.1 ESE 22 25 1017.6 - - - - - - - - -
24/05:30pm 26.1 ESE 23 27 1017.3 - - - - - - - - -
24/05:00pm 26.1 ESE 22 27 1017.0 - - - - - - - - -
24/04:30pm 26.1 ESE 21 25 1016.8 - - - - - - - - -
24/04:00pm 26.1 ESE 21 28 1016.4 - - - - - - - - -
24/03:30pm 26.0 ESE 20 25 1016.2 - - - - - - - - -
24/03:00pm 26.0 SE 22 25 1016.1 - - - - - - - - -
24/02:30pm 26.3 ESE 19 23 1016.1 - - - - - - - - -
24/02:00pm 26.0 SE 21 25 1016.1 - - - - - - - - -
24/01:30pm 25.9 SE 21 24 1016.1 - - - - - - - - -
24/01:00pm 25.9 ESE 21 25 1016.4 - - - - - - - - -
24/12:30pm 26.0 SE 22 26 1016.7 - - - - - - - - -
24/12:00pm 26.0 ESE 22 25 1017.2 - - - - - - - - -
24/11:30am 26.0 ESE 21 24 1017.7 - - - - - - - - -
24/11:00am 26.0 ESE 21 25 1017.9 - - - - - - - - -
24/10:30am 26.0 SE 22 26 1018.2 - - - - - - - - -
24/10:00am 26.0 ESE 20 25 1018.5 - - - - - - - - -
24/09:30am 25.8 SE 21 25 1018.3 - - - - - - - - -
24/09:00am 26.0 ESE 21 25 1018.2 - - - - - - - - -
24/08:30am 25.7 ESE 21 25 1017.9 - - - - - - - - -
24/08:00am 25.7 SE 21 24 1017.6 - - - - - - - - -
24/07:30am 25.5 SE 22 25 1017.1 - - - - - - - - -
24/07:00am 25.4 SE 21 25 1016.8 - - - - - - - - -
24/06:30am 25.1 SE 21 24 1016.5 - - - - - - - - -
24/06:00am 25.2 SE 20 23 1016.5 - - - - - - - - -
24/05:30am 25.1 ESE 19 23 1016.1 - - - - - - - - -
24/05:00am 25.2 SE 21 25 1015.7 - - - - - - - - -
24/04:30am 25.2 SE 21 25 1015.5 - - - - - - - - -
24/04:00am 25.2 SE 20 23 1015.4 - - - - - - - - -
24/03:30am 25.1 SE 22 26 1015.3 - - - - - - - - -
24/03:00am 25.2 SE 22 25 1015.2 - - - - - - - - -
24/02:30am 25.1 SE 21 25 1015.2 - - - - - - - - -
24/02:00am 25.2 SE 21 26 1015.4 - - - - - - - - -
24/01:30am 25.1 SE 22 26 1015.4 - - - - - - - - -
24/01:00am 25.2 SE 21 26 1015.5 - - - - - - - - -
24/12:30am 25.0 SE 23 27 1015.6 - - - - - - - - -
24/12:00am 25.2 SE 22 26 1015.7 - - - - - - - - -
 
Date/Time
EST
Temp

°C
Wind Pressure Rain
since 9am
mm
Weather Cloud Vis
km
Sea
Height
m
Swell
Dir
 
Speed
knots
Gust
knots
hPa Trend Height
m
Period
s
Dir
23/11:30pm 25.1 SE 22 26 1015.8 - - - - - - - - -
23/11:00pm 25.4 SE 22 25 1016.1 - - - - - - - - -
23/10:30pm 25.2 SE 22 26 1016.2 - - - - - - - - -

Other Formats:

Comma delimited format used in spreadsheet applications
http://www.bom.gov.au/fwo/IDQ60701/IDQ60701.94293.axf

JavaScript Object Notation format (JSON) in row-major order
http://www.bom.gov.au/fwo/IDQ60701/IDQ60701.94293.json